createdAt,value
2023-05-03T00:01:37.139Z,9.20
2023-05-03T00:04:06.417Z,9.20
2023-05-03T00:06:34.631Z,9.30
2023-05-03T00:09:04.154Z,9.30
2023-05-03T00:11:32.164Z,9.30
2023-05-03T00:14:00.191Z,9.30
2023-05-03T00:16:28.284Z,9.30
2023-05-03T00:18:56.276Z,9.30
2023-05-03T00:21:24.413Z,9.40
2023-05-03T00:23:52.457Z,9.40
2023-05-03T00:26:22.531Z,9.30
2023-05-03T00:28:50.594Z,9.30
2023-05-03T00:31:19.572Z,9.40
2023-05-03T00:33:47.727Z,9.40
2023-05-03T00:36:16.373Z,9.40
2023-05-03T00:38:44.625Z,9.40
2023-05-03T00:41:13.100Z,9.40
2023-05-03T00:43:42.536Z,9.30
2023-05-03T00:46:17.445Z,9.30
2023-05-03T00:48:46.302Z,9.30
2023-05-03T00:51:16.631Z,9.30
2023-05-03T00:53:45.260Z,9.30
2023-05-03T00:56:19.413Z,9.30
2023-05-03T00:58:48.885Z,9.30
2023-05-03T01:01:17.388Z,9.30
2023-05-03T01:03:46.490Z,9.20
2023-05-03T01:06:21.815Z,9.20
2023-05-03T01:08:57.169Z,9.20
2023-05-03T01:11:30.768Z,9.20
2023-05-03T01:14:07.469Z,9.20
2023-05-03T01:16:41.252Z,9.20
2023-05-03T01:19:20.560Z,9.20
2023-05-03T01:21:51.584Z,9.20
2023-05-03T01:24:23.670Z,9.20
2023-05-03T01:26:53.019Z,9.20
2023-05-03T01:29:21.250Z,9.10
2023-05-03T01:31:56.798Z,9.20
2023-05-03T01:34:34.742Z,9.20
2023-05-03T01:37:05.170Z,9.30
2023-05-03T01:39:38.389Z,9.30
2023-05-03T01:42:09.752Z,9.30
2023-05-03T01:44:38.626Z,9.30
2023-05-03T01:47:08.898Z,9.30
2023-05-03T01:49:37.011Z,9.40
2023-05-03T01:52:05.365Z,9.40
2023-05-03T01:54:33.960Z,9.40
2023-05-03T01:57:03.037Z,9.40
2023-05-03T01:59:32.430Z,9.40
2023-05-03T02:02:00.436Z,9.40
2023-05-03T02:04:28.630Z,9.40
2023-05-03T02:06:56.741Z,9.40
2023-05-03T02:09:25.930Z,9.40
2023-05-03T02:11:53.921Z,9.40
2023-05-03T02:14:21.925Z,9.50
2023-05-03T02:16:51.618Z,9.50
2023-05-03T02:19:19.635Z,9.50
2023-05-03T02:21:47.619Z,9.50
2023-05-03T02:24:17.620Z,9.50
2023-05-03T02:26:45.619Z,9.50
2023-05-03T02:29:13.626Z,9.50
2023-05-03T02:31:41.661Z,9.50
2023-05-03T02:34:11.808Z,9.40
2023-05-03T02:36:40.657Z,9.40
2023-05-03T02:39:08.812Z,9.40
2023-05-03T02:41:36.887Z,9.40
2023-05-03T02:44:05.581Z,9.30
2023-05-03T02:46:33.642Z,9.30
2023-05-03T02:49:02.464Z,9.40
2023-05-03T02:51:32.515Z,9.40
2023-05-03T02:54:00.751Z,9.30
2023-05-03T02:56:29.100Z,9.40
2023-05-03T02:58:57.255Z,9.40
2023-05-03T03:01:25.362Z,9.40
2023-05-03T03:03:53.599Z,9.40
2023-05-03T03:06:21.992Z,9.40
2023-05-03T03:08:51.359Z,9.40
2023-05-03T03:11:20.167Z,9.50
2023-05-03T03:13:49.030Z,9.50
2023-05-03T03:16:17.179Z,9.50
2023-05-03T03:18:45.337Z,9.40
2023-05-03T03:21:15.922Z,9.40
2023-05-03T03:23:44.235Z,9.50
2023-05-03T03:26:13.741Z,9.50
2023-05-03T03:28:42.546Z,9.40
2023-05-03T03:31:12.848Z,9.40
2023-05-03T03:33:42.433Z,9.30
2023-05-03T03:36:15.926Z,9.30
2023-05-03T03:38:46.491Z,9.30
2023-05-03T03:41:16.032Z,9.30
2023-05-03T03:43:45.450Z,9.30
2023-05-03T03:46:18.232Z,9.30
2023-05-03T03:48:48.309Z,9.30
2023-05-03T03:51:16.354Z,9.20
2023-05-03T03:53:48.273Z,9.30
2023-05-03T03:56:18.665Z,9.20
2023-05-03T03:58:48.985Z,9.30
2023-05-03T04:01:17.612Z,9.30
2023-05-03T04:03:47.635Z,9.30
2023-05-03T04:06:16.139Z,9.30
2023-05-03T04:08:44.245Z,9.30
2023-05-03T04:11:14.687Z,9.30
2023-05-03T04:13:51.343Z,9.30
2023-05-03T04:16:19.957Z,9.30
2023-05-03T04:18:48.164Z,9.30
2023-05-03T04:21:16.332Z,9.30
2023-05-03T04:23:45.107Z,9.30
2023-05-03T04:26:30.026Z,9.30
2023-05-03T04:29:05.708Z,9.30
2023-05-03T04:31:34.146Z,9.30
2023-05-03T04:34:03.056Z,9.30
2023-05-03T04:36:31.382Z,9.40
2023-05-03T04:39:00.223Z,9.30
2023-05-03T04:41:29.008Z,9.30
2023-05-03T04:43:57.087Z,9.30
2023-05-03T04:46:26.641Z,9.40
2023-05-03T04:48:54.784Z,9.40
2023-05-03T04:51:23.667Z,9.50
2023-05-03T04:53:53.851Z,9.40
2023-05-03T04:56:26.400Z,9.50
2023-05-03T04:59:00.524Z,9.50
2023-05-03T05:01:30.076Z,9.50
2023-05-03T05:04:02.359Z,9.50
2023-05-03T05:06:37.361Z,9.60
2023-05-03T05:09:08.530Z,9.60
2023-05-03T05:11:37.161Z,9.60
2023-05-03T05:14:05.230Z,9.70
2023-05-03T05:16:35.665Z,9.60
2023-05-03T05:19:04.549Z,9.70
2023-05-03T05:21:32.790Z,9.80
2023-05-03T05:24:01.173Z,9.80
2023-05-03T05:26:29.650Z,9.80
2023-05-03T05:28:57.862Z,9.90
2023-05-03T05:31:26.420Z,9.90
2023-05-03T05:33:56.890Z,10.00
2023-05-03T05:36:25.045Z,10.10
2023-05-03T05:38:53.619Z,10.10
2023-05-03T05:41:21.804Z,10.10
2023-05-03T05:43:49.942Z,10.10
2023-05-03T05:46:21.096Z,10.00
2023-05-03T05:48:51.307Z,10.00
2023-05-03T05:51:21.264Z,10.00
2023-05-03T05:53:49.525Z,10.00
2023-05-03T05:56:19.373Z,10.00
2023-05-03T05:58:47.424Z,10.10
2023-05-03T06:01:15.729Z,10.10
2023-05-03T06:03:43.894Z,10.00
2023-05-03T06:06:12.092Z,10.00
2023-05-03T06:08:41.593Z,10.00
2023-05-03T06:11:09.850Z,10.10
2023-05-03T06:13:38.658Z,10.10
2023-05-03T06:16:08.369Z,10.10
2023-05-03T06:18:36.497Z,10.10
2023-05-03T06:21:04.708Z,10.10
2023-05-03T06:23:33.518Z,10.20
2023-05-03T06:26:03.749Z,10.20
2023-05-03T06:28:31.901Z,10.30
2023-05-03T06:31:01.421Z,10.30
2023-05-03T06:33:31.841Z,10.30
2023-05-03T06:36:00.171Z,10.40
2023-05-03T06:38:28.240Z,10.40
2023-05-03T06:40:56.335Z,10.50
2023-05-03T06:43:25.910Z,10.50
2023-05-03T06:45:57.284Z,10.50
2023-05-03T06:48:25.618Z,10.60
2023-05-03T06:50:54.633Z,10.70
2023-05-03T06:53:22.721Z,10.90
2023-05-03T06:55:52.081Z,10.90
2023-05-03T06:58:20.147Z,10.90
2023-05-03T07:00:53.359Z,10.80
2023-05-03T07:03:21.757Z,10.80
2023-05-03T07:05:50.053Z,10.90
2023-05-03T07:08:18.093Z,10.90
2023-05-03T07:10:46.158Z,11.00
2023-05-03T07:13:14.578Z,11.10
2023-05-03T07:15:42.855Z,11.20
2023-05-03T07:18:12.475Z,11.20
2023-05-03T07:20:40.772Z,11.30
2023-05-03T07:23:09.637Z,11.30
2023-05-03T07:25:39.271Z,11.40
2023-05-03T07:28:07.483Z,11.50
2023-05-03T07:30:35.748Z,11.60
2023-05-03T07:33:04.276Z,11.70
2023-05-03T07:35:33.986Z,11.70
2023-05-03T07:38:02.163Z,11.80
2023-05-03T07:40:33.154Z,11.80
2023-05-03T07:43:01.585Z,11.90
2023-05-03T07:45:29.789Z,12.00
2023-05-03T07:47:58.632Z,12.00
2023-05-03T07:50:27.121Z,12.20
2023-05-03T07:52:56.616Z,12.30
2023-05-03T07:55:25.052Z,12.40
2023-05-03T07:57:58.414Z,12.50
2023-05-03T08:00:27.208Z,12.60
2023-05-03T08:02:55.654Z,12.70
2023-05-03T08:05:24.391Z,12.70
2023-05-03T08:07:52.679Z,12.70
2023-05-03T08:10:22.549Z,12.70
2023-05-03T08:12:51.446Z,12.80
2023-05-03T08:15:19.790Z,12.80
2023-05-03T08:17:47.967Z,12.90
2023-05-03T08:20:16.885Z,12.90
2023-05-03T08:22:46.479Z,12.90
2023-05-03T08:25:16.825Z,12.80
2023-05-03T08:27:46.386Z,12.80
2023-05-03T08:30:14.820Z,12.90
2023-05-03T08:32:43.066Z,13.00
2023-05-03T08:35:13.996Z,13.00
2023-05-03T08:37:43.295Z,13.10
2023-05-03T08:40:13.699Z,13.20
2023-05-03T08:42:43.202Z,13.30
2023-05-03T08:45:16.060Z,13.40
2023-05-03T08:47:45.864Z,13.40
2023-05-03T08:50:15.553Z,13.50
2023-05-03T08:52:44.841Z,13.50
2023-05-03T08:55:13.939Z,13.50
2023-05-03T08:57:42.216Z,13.70
2023-05-03T09:00:13.312Z,13.80
2023-05-03T09:02:41.893Z,13.90
2023-05-03T09:05:33.698Z,14.10
2023-05-03T09:08:02.895Z,14.20
2023-05-03T09:10:31.106Z,14.40
2023-05-03T09:13:01.166Z,14.60
2023-05-03T09:15:31.774Z,14.70
2023-05-03T09:18:11.089Z,14.80
2023-05-03T09:20:41.801Z,14.90
2023-05-03T09:23:10.660Z,15.00
2023-05-03T09:25:43.193Z,15.00
2023-05-03T09:28:11.492Z,15.00
2023-05-03T09:30:41.797Z,15.10
2023-05-03T09:33:10.522Z,15.20
2023-05-03T09:35:39.036Z,15.40
2023-05-03T09:38:07.253Z,15.50
2023-05-03T09:40:35.493Z,15.70
2023-05-03T09:43:11.316Z,15.90
2023-05-03T09:45:41.042Z,16.00
2023-05-03T09:48:10.122Z,16.10
2023-05-03T09:50:38.653Z,16.30
2023-05-03T09:53:08.606Z,16.40
2023-05-03T09:55:38.211Z,16.30
2023-05-03T09:58:07.743Z,16.40
2023-05-03T10:00:42.615Z,16.50
2023-05-03T10:03:12.588Z,16.60
2023-05-03T10:05:47.657Z,16.70
2023-05-03T10:08:24.294Z,16.70
2023-05-03T10:10:54.368Z,16.80
2023-05-03T10:13:23.774Z,16.90
2023-05-03T10:15:59.735Z,17.10
2023-05-03T10:18:31.037Z,17.10
2023-05-03T10:21:03.821Z,17.10
2023-05-03T10:23:32.119Z,17.20
2023-05-03T10:26:16.478Z,17.20
2023-05-03T10:28:45.855Z,17.00
2023-05-03T10:31:53.792Z,16.90
2023-05-03T10:34:24.998Z,17.00
2023-05-03T10:36:54.516Z,17.20
2023-05-03T10:39:23.143Z,17.40
2023-05-03T10:42:03.200Z,17.60
2023-05-03T10:44:39.751Z,17.80
2023-05-03T10:47:15.520Z,17.90
2023-05-03T10:49:45.400Z,17.70
2023-05-03T10:52:49.239Z,17.80
2023-05-03T10:55:19.491Z,17.50
2023-05-03T10:57:49.783Z,17.50
2023-05-03T11:00:23.515Z,17.60
2023-05-03T11:03:31.421Z,17.60
2023-05-03T11:06:01.211Z,17.60
2023-05-03T11:08:31.127Z,17.60
2023-05-03T11:11:02.544Z,17.80
2023-05-03T11:13:30.961Z,17.90
2023-05-03T11:15:59.355Z,18.00
2023-05-03T11:18:28.479Z,18.10
2023-05-03T11:20:57.076Z,18.20
2023-05-03T11:23:28.847Z,18.30
2023-05-03T11:25:58.000Z,18.30
2023-05-03T11:28:27.205Z,18.20
2023-05-03T11:30:55.508Z,18.00
2023-05-03T11:33:23.819Z,18.00
2023-05-03T11:35:56.125Z,18.00
2023-05-03T11:38:24.450Z,17.70
2023-05-03T11:40:54.144Z,17.60
2023-05-03T11:43:22.380Z,17.50
2023-05-03T11:45:53.184Z,17.50
2023-05-03T11:48:21.720Z,17.20
2023-05-03T11:50:54.420Z,17.00
2023-05-03T11:53:24.444Z,16.80
2023-05-03T11:55:55.115Z,16.60
2023-05-03T11:58:26.684Z,16.40
2023-05-03T12:00:57.073Z,16.20
2023-05-03T12:03:31.233Z,16.20
2023-05-03T12:06:02.683Z,16.10
2023-05-03T12:08:36.714Z,16.20
2023-05-03T12:11:10.196Z,16.20
2023-05-03T12:13:40.845Z,16.10
2023-05-03T12:16:14.788Z,16.10
2023-05-03T12:18:56.157Z,16.10
2023-05-03T12:23:58.015Z,16.30
2023-05-03T12:26:28.928Z,16.40
2023-05-03T12:28:57.327Z,16.40
2023-05-03T12:31:28.910Z,16.50
2023-05-03T12:36:31.410Z,16.50
2023-05-03T12:39:02.125Z,16.60
2023-05-03T12:42:05.474Z,16.80
2023-05-03T12:44:23.469Z,17.00
2023-05-03T12:46:53.367Z,17.00
2023-05-03T12:49:23.505Z,17.00
2023-05-03T12:52:11.046Z,17.00
2023-05-03T12:54:42.237Z,17.20
2023-05-03T12:57:15.340Z,17.40
2023-05-03T12:59:52.350Z,17.50
2023-05-03T13:04:58.527Z,17.60
2023-05-03T13:07:31.695Z,17.70
2023-05-03T13:12:34.567Z,18.20
2023-05-03T13:15:04.224Z,18.20
2023-05-03T13:17:33.029Z,18.10
2023-05-03T13:20:01.491Z,17.90
2023-05-03T13:22:29.803Z,17.80
2023-05-03T13:24:58.124Z,17.80
2023-05-03T13:27:26.547Z,18.00
2023-05-03T13:29:56.236Z,18.30
2023-05-03T13:32:24.543Z,18.30
2023-05-03T13:34:52.853Z,18.50
2023-05-03T13:37:21.088Z,18.60
2023-05-03T13:39:49.284Z,18.70
2023-05-03T13:42:17.489Z,18.80
2023-05-03T13:44:47.622Z,19.10
2023-05-03T13:47:17.226Z,19.30
2023-05-03T13:49:45.621Z,20.10
2023-05-03T13:52:13.862Z,20.80
2023-05-03T13:54:42.964Z,20.90
2023-05-03T13:57:11.165Z,21.30
2023-05-03T13:59:39.480Z,21.80
2023-05-03T14:02:08.568Z,22.70
2023-05-03T14:04:38.335Z,22.80
2023-05-03T14:07:06.623Z,22.10
2023-05-03T14:09:39.335Z,21.50
2023-05-03T14:12:09.300Z,20.90
2023-05-03T14:14:37.778Z,20.20
2023-05-03T14:17:06.632Z,19.90
2023-05-03T14:19:37.802Z,20.10
2023-05-03T14:22:06.200Z,21.20
2023-05-03T14:24:34.380Z,22.10
2023-05-03T14:27:03.138Z,22.70
2023-05-03T14:29:31.391Z,22.20
2023-05-03T14:31:59.510Z,21.70
2023-05-03T14:34:29.222Z,21.10
2023-05-03T14:36:58.776Z,20.80
2023-05-03T14:39:27.062Z,20.30
2023-05-03T14:41:56.551Z,19.80
2023-05-03T14:44:25.164Z,19.40
2023-05-03T14:46:53.955Z,19.20
2023-05-03T14:49:22.450Z,19.00
2023-05-03T14:51:50.708Z,18.70
2023-05-03T14:54:23.116Z,18.60
2023-05-03T14:56:51.935Z,18.60
2023-05-03T14:59:20.096Z,18.30
2023-05-03T15:01:48.951Z,18.30
2023-05-03T15:04:17.249Z,18.30
2023-05-03T15:06:45.560Z,18.30
2023-05-03T15:09:13.976Z,18.50
2023-05-03T15:11:43.985Z,18.80
2023-05-03T15:14:12.463Z,19.00
2023-05-03T15:16:40.865Z,19.30
2023-05-03T15:19:09.618Z,19.70
2023-05-03T15:21:46.548Z,20.80
2023-05-03T15:24:15.137Z,22.30
2023-05-03T15:26:45.057Z,23.60
2023-05-03T15:29:13.577Z,24.80
2023-05-03T15:31:42.850Z,25.60
2023-05-03T15:34:12.603Z,26.50
2023-05-03T15:36:41.697Z,26.90
2023-05-03T15:39:10.112Z,27.50
2023-05-03T15:41:38.538Z,27.70
2023-05-03T15:44:09.797Z,28.00
2023-05-03T15:46:39.624Z,28.20
2023-05-03T15:49:09.757Z,28.50
2023-05-03T15:51:38.132Z,28.60
2023-05-03T15:54:06.425Z,28.50
2023-05-03T15:56:34.739Z,29.00
2023-05-03T15:59:02.955Z,29.50
2023-05-03T16:01:32.538Z,29.80
2023-05-03T16:04:00.808Z,29.40
2023-05-03T16:06:29.746Z,29.20
2023-05-03T16:08:58.151Z,28.90
2023-05-03T16:11:26.462Z,28.80
2023-05-03T16:13:54.957Z,29.10
2023-05-03T16:16:23.194Z,29.50
2023-05-03T16:18:52.787Z,30.00
2023-05-03T16:21:21.107Z,29.90
2023-05-03T16:23:49.541Z,30.20
2023-05-03T16:26:19.361Z,30.30
2023-05-03T16:28:48.895Z,30.50
2023-05-03T16:31:18.377Z,30.60
2023-05-03T16:33:46.533Z,30.70
2023-05-03T16:36:16.970Z,30.70
2023-05-03T16:38:46.045Z,30.60
2023-05-03T16:41:14.435Z,30.60
2023-05-03T16:43:42.900Z,30.70
2023-05-03T16:46:11.417Z,30.50
2023-05-03T16:48:39.605Z,30.50
2023-05-03T16:51:07.834Z,30.50
2023-05-03T16:53:37.535Z,30.40
2023-05-03T16:56:06.253Z,30.20
2023-05-03T16:58:34.558Z,29.90
2023-05-03T17:01:03.278Z,29.30
2023-05-03T17:03:31.792Z,28.50
2023-05-03T17:06:02.234Z,27.60
2023-05-03T17:08:32.890Z,26.70
2023-05-03T17:11:08.101Z,25.90
2023-05-03T17:13:36.636Z,25.20
2023-05-03T17:16:10.292Z,24.60
2023-05-03T17:18:40.294Z,24.00
2023-05-03T17:21:09.745Z,23.50
2023-05-03T17:23:39.520Z,22.90
2023-05-03T17:26:10.873Z,22.50
2023-05-03T17:28:40.088Z,22.10
2023-05-03T17:31:08.975Z,21.80
2023-05-03T17:33:37.539Z,21.50
2023-05-03T17:36:06.111Z,21.20
2023-05-03T17:38:35.746Z,21.00
2023-05-03T17:41:09.133Z,20.80
2023-05-03T17:43:37.945Z,20.50
2023-05-03T17:46:11.009Z,20.10
2023-05-03T17:48:42.690Z,19.90
2023-05-03T17:51:12.612Z,19.70
2023-05-03T17:53:41.422Z,19.70
2023-05-03T17:56:16.044Z,19.50
2023-05-03T17:58:44.924Z,19.30
2023-05-03T18:01:13.679Z,19.00
2023-05-03T18:03:45.223Z,18.80
2023-05-03T18:06:14.745Z,18.60
2023-05-03T18:08:43.256Z,18.30
2023-05-03T18:11:11.679Z,18.10
2023-05-03T18:13:41.506Z,17.90
2023-05-03T18:16:10.680Z,17.80
2023-05-03T18:18:39.233Z,17.60
2023-05-03T18:21:07.721Z,17.40
2023-05-03T18:23:36.263Z,17.20
2023-05-03T18:26:05.443Z,17.00
2023-05-03T18:28:34.150Z,16.90
2023-05-03T18:31:04.095Z,16.80
2023-05-03T18:33:34.774Z,16.60
2023-05-03T18:36:05.074Z,16.50
2023-05-03T18:38:33.298Z,16.40
2023-05-03T18:41:01.536Z,16.20
2023-05-03T18:43:30.457Z,16.10
2023-05-03T18:45:59.899Z,16.10
2023-05-03T18:48:29.662Z,15.90
2023-05-03T18:51:02.254Z,15.80
2023-05-03T18:53:31.952Z,15.70
2023-05-03T18:56:00.381Z,15.60
2023-05-03T18:58:29.195Z,15.40
2023-05-03T19:00:59.968Z,15.30
2023-05-03T19:03:30.387Z,15.20
2023-05-03T19:06:03.729Z,15.00
2023-05-03T19:08:32.000Z,14.90
2023-05-03T19:11:08.185Z,14.80
2023-05-03T19:13:36.658Z,14.70
2023-05-03T19:16:05.172Z,14.60
2023-05-03T19:18:37.176Z,14.50
2023-05-03T19:21:05.887Z,14.40
2023-05-03T19:23:34.189Z,14.30
2023-05-03T19:26:03.206Z,14.20
2023-05-03T19:28:32.361Z,14.10
2023-05-03T19:31:04.666Z,14.00
2023-05-03T19:33:34.431Z,14.00
2023-05-03T19:36:06.411Z,13.90
2023-05-03T19:38:36.185Z,13.70
2023-05-03T19:41:08.345Z,13.60
2023-05-03T19:43:36.688Z,13.50
2023-05-03T19:46:05.300Z,13.40
2023-05-03T19:48:35.223Z,13.30
2023-05-03T19:51:05.351Z,13.20
2023-05-03T19:53:34.004Z,13.10
2023-05-03T19:56:03.955Z,13.00
2023-05-03T19:58:32.753Z,12.90
2023-05-03T20:01:01.743Z,12.80
2023-05-03T20:03:30.335Z,12.80
2023-05-03T20:06:00.272Z,12.70
2023-05-03T20:08:28.692Z,12.60
2023-05-03T20:10:57.298Z,12.50
2023-05-03T20:13:27.708Z,12.50
2023-05-03T20:15:56.580Z,12.30
2023-05-03T20:18:24.958Z,12.20
2023-05-03T20:20:54.249Z,12.10
2023-05-03T20:23:23.958Z,12.00
2023-05-03T20:25:52.274Z,12.00
2023-05-03T20:28:21.290Z,11.90
2023-05-03T20:30:49.552Z,11.80
2023-05-03T20:33:18.402Z,11.70
2023-05-03T20:35:46.749Z,11.60
2023-05-03T20:38:15.423Z,11.50
2023-05-03T20:40:46.227Z,11.50
2023-05-03T20:43:14.552Z,11.40
2023-05-03T20:45:42.898Z,11.30
2023-05-03T20:48:11.626Z,11.30
2023-05-03T20:50:39.864Z,11.20
2023-05-03T20:53:08.198Z,11.20
2023-05-03T20:55:36.540Z,11.10
2023-05-03T20:58:06.441Z,11.10
2023-05-03T21:00:34.608Z,11.00
2023-05-03T21:03:03.680Z,11.00
2023-05-03T21:05:31.997Z,11.00
2023-05-03T21:08:00.260Z,10.90
2023-05-03T21:10:29.148Z,10.90
2023-05-03T21:12:57.631Z,10.80
2023-05-03T21:15:27.372Z,10.80
2023-05-03T21:17:56.574Z,10.80
2023-05-03T21:20:25.066Z,10.70
2023-05-03T21:22:53.904Z,10.70
2023-05-03T21:25:22.533Z,10.60
2023-05-03T21:27:50.725Z,10.60
2023-05-03T21:30:20.518Z,10.50
2023-05-03T21:32:50.362Z,10.50
2023-05-03T21:35:18.869Z,10.40
2023-05-03T21:37:48.181Z,10.40
2023-05-03T21:40:17.180Z,10.30
2023-05-03T21:42:45.589Z,10.30
2023-05-03T21:45:15.121Z,10.20
2023-05-03T21:47:43.508Z,10.20
2023-05-03T21:50:13.959Z,10.10
2023-05-03T21:52:42.450Z,10.10
2023-05-03T21:55:11.247Z,10.00
2023-05-03T21:57:39.683Z,10.00
2023-05-03T22:00:14.273Z,10.00
2023-05-03T22:02:43.057Z,9.90
2023-05-03T22:05:13.179Z,9.90
2023-05-03T22:07:41.626Z,9.90
2023-05-03T22:10:10.848Z,9.90
2023-05-03T22:12:39.361Z,9.80
2023-05-03T22:15:09.166Z,9.70
2023-05-03T22:17:37.629Z,9.70
2023-05-03T22:20:08.104Z,9.70
2023-05-03T22:22:37.963Z,9.70
2023-05-03T22:25:06.978Z,9.60
2023-05-03T22:27:35.259Z,9.60
2023-05-03T22:30:03.857Z,9.60
2023-05-03T22:32:32.453Z,9.60
2023-05-03T22:35:00.781Z,9.50
2023-05-03T22:37:29.053Z,9.50
2023-05-03T22:39:58.605Z,9.50
2023-05-03T22:42:26.854Z,9.40
2023-05-03T22:44:57.035Z,9.40
2023-05-03T22:47:26.019Z,9.30
2023-05-03T22:49:54.280Z,9.30
2023-05-03T22:52:22.810Z,9.30
2023-05-03T22:54:56.820Z,9.20
2023-05-03T22:57:26.928Z,9.20
2023-05-03T22:59:55.432Z,9.20
2023-05-03T23:02:23.965Z,9.20
2023-05-03T23:04:52.272Z,9.10
2023-05-03T23:07:20.974Z,9.10
2023-05-03T23:09:49.597Z,9.10
2023-05-03T23:12:18.731Z,9.10
2023-05-03T23:14:48.314Z,9.10
2023-05-03T23:17:16.715Z,9.10
2023-05-03T23:19:44.942Z,9.00
2023-05-03T23:22:13.370Z,9.00
2023-05-03T23:24:41.646Z,9.00
2023-05-03T23:27:11.080Z,9.00
2023-05-03T23:29:40.062Z,8.90
2023-05-03T23:32:10.360Z,8.90
2023-05-03T23:34:39.088Z,8.90
2023-05-03T23:37:07.494Z,8.80
2023-05-03T23:39:35.671Z,8.80
2023-05-03T23:42:03.876Z,8.70
2023-05-03T23:44:46.501Z,8.70
2023-05-03T23:47:20.639Z,8.70
2023-05-03T23:49:48.829Z,8.60
2023-05-03T23:52:19.186Z,8.60
2023-05-03T23:54:47.515Z,8.60
2023-05-03T23:57:16.075Z,8.60
2023-05-03T23:59:44.392Z,8.50
